Airway Heights, WA

9:43 PM PST on February 28, 2015 (GMT -0800)
Hayford | Change Station
CLOSE
Current Station
Personal Weather Station
Location: Cheney, WA
Elevation: 2441 ft
Nearby Weather Stations

Elev 2441 ft 47.58 °N, 117.54 °W | Updated 9 minutes ago

Clear
Clear
26.4 °F
Feels Like 26 °F
N
0.0
Wind Variable Wind from East

Today
High -- | Low -- °F
--% Chance of Precip.
Yesterday
High -- | Low -- °F
Precip. -- in
6:33 AM 5:33 PM
Waxing Gibbous, 82% visible
Pressure 30.16 in
Visibility 10.0 miles
Clouds Clear
Windchill 26 °F
Dew Point 6 °F
Humidity 41%
Rainfall 0.00 in
Snow Depth Not available.
UV 0 out of 12
Pollen 4.20 out of 12
Air Quality Not available.
Flu Activity Not available.
METAR KGEG 010453Z 11004KT 10SM CLR 01/M16 A3016

More Conditions Fewer Conditions

Pressure 30.16 in
Visibility 10.0 miles
Clouds Clear
Windchill 26 °F
Dew Point 6 °F
Humidity 41%
Rainfall 0.00 in
Snow Depth Not available.
UV 0 out of 12
Pollen 4.20 out of 12
Air Quality Not available.
Flu Activity Not available.
METAR KGEG 010453Z 11004KT 10SM CLR 01/M16 A3016

More Conditions Fewer Conditions

10-Day Weather Forecast

Almanac

Astronomy

Feb. 28, 2015 Rise Set
Actual Time
Civil Twilight
Nautical Twilight
Astronomical Twilight
Moon
Length of Visible Light
Length of Day
Tomorrow will be .
, % of the Moon is Illuminated

Today's Extremes

State Highs State Lows

Community

WunderPhotos

Upload Photos

1,801,336 photos uploaded!

WunderBlogs® & News

Nearby

Air Quality

  Air Quality AQ Index Pollutant
Not available.

Snow Depth

Station Depth Elevation

Earthquake Activity

City Distance Mag. Time & Date
Minimum magnitude displayed is 2.5.

Coastal Water Temperatures

Place Temperature

Nearby Weather Stations